createdAt,value
2022-11-25T00:01:28.592Z,13.75
2022-11-25T00:03:57.248Z,12.25
2022-11-25T00:06:26.584Z,17.00
2022-11-25T00:08:58.506Z,14.67
2022-11-25T00:11:26.092Z,10.00
2022-11-25T00:13:53.254Z,9.50
2022-11-25T00:16:22.617Z,6.25
2022-11-25T00:18:54.562Z,8.33
2022-11-25T00:21:23.990Z,7.25
2022-11-25T00:24:02.002Z,8.75
2022-11-25T00:26:32.814Z,13.33
2022-11-25T00:29:03.141Z,9.75
2022-11-25T00:31:36.115Z,6.50
2022-11-25T00:34:03.701Z,10.00
2022-11-25T00:36:36.251Z,8.00
2022-11-25T00:39:11.936Z,10.50
2022-11-25T00:42:14.529Z,7.50
2022-11-25T00:44:41.947Z,12.75
2022-11-25T00:47:15.606Z,17.00
2022-11-25T00:49:47.219Z,13.00
2022-11-25T00:52:17.897Z,10.75
2022-11-25T00:54:46.324Z,7.50
2022-11-25T00:57:13.560Z,10.25
2022-11-25T00:59:40.911Z,6.00
2022-11-25T01:02:08.432Z,10.25
2022-11-25T01:04:35.914Z,11.00
2022-11-25T01:07:03.075Z,7.25
2022-11-25T01:09:31.161Z,11.25
2022-11-25T01:11:58.504Z,8.50
2022-11-25T01:14:25.584Z,9.25
2022-11-25T01:16:52.969Z,9.00
2022-11-25T01:19:20.795Z,5.25
2022-11-25T01:21:47.821Z,4.00
2022-11-25T01:24:16.179Z,5.25
2022-11-25T01:26:44.335Z,10.33
2022-11-25T01:29:16.761Z,15.33
2022-11-25T01:31:44.999Z,10.75
2022-11-25T01:34:13.910Z,6.50
2022-11-25T01:36:40.892Z,6.75
2022-11-25T01:39:08.026Z,8.00
2022-11-25T01:41:35.734Z,8.75
2022-11-25T01:44:28.193Z,5.00
2022-11-25T01:47:00.014Z,4.25
2022-11-25T01:49:59.754Z,2.50
2022-11-25T01:52:35.864Z,12.00
2022-11-25T01:55:09.429Z,12.67
2022-11-25T01:57:54.037Z,16.00
2022-11-25T02:00:21.426Z,12.00
2022-11-25T02:02:50.738Z,5.50
2022-11-25T02:05:33.781Z,5.50
2022-11-25T02:08:20.203Z,11.33
2022-11-25T02:11:05.296Z,14.00
2022-11-25T02:13:49.917Z,16.00
2022-11-25T02:16:35.506Z,15.00
2022-11-25T02:19:29.372Z,17.33
2022-11-25T02:22:23.744Z,14.00
2022-11-25T02:25:18.573Z,6.00
2022-11-25T02:28:11.869Z,14.33
2022-11-25T02:30:39.178Z,6.25
2022-11-25T02:33:07.099Z,5.25
2022-11-25T02:35:35.514Z,15.67
2022-11-25T02:38:21.229Z,8.25
2022-11-25T02:40:49.310Z,14.33
2022-11-25T02:43:17.662Z,14.00
2022-11-25T02:45:57.325Z,14.00
2022-11-25T02:48:45.769Z,5.00
2022-11-25T02:51:16.849Z,13.75
2022-11-25T02:53:43.813Z,6.67
2022-11-25T02:56:12.459Z,17.00
2022-11-25T02:58:40.391Z,14.00
2022-11-25T03:01:07.653Z,12.33
2022-11-25T03:03:34.711Z,17.00
2022-11-25T03:06:02.390Z,5.50
2022-11-25T03:08:29.390Z,21.33
2022-11-25T03:10:56.292Z,12.00
2022-11-25T03:13:23.475Z,13.75
2022-11-25T03:15:50.454Z,15.00
2022-11-25T03:18:17.384Z,7.25
2022-11-25T03:20:44.231Z,20.00
2022-11-25T03:23:11.248Z,16.67
2022-11-25T03:25:38.160Z,17.67
2022-11-25T03:28:05.293Z,16.00
2022-11-25T03:30:32.351Z,12.25
2022-11-25T03:32:59.286Z,18.00
2022-11-25T03:35:26.410Z,21.00
2022-11-25T03:37:53.585Z,15.00
2022-11-25T03:40:20.616Z,7.00
2022-11-25T03:42:47.621Z,6.00
2022-11-25T03:45:16.116Z,15.00
2022-11-25T03:47:44.600Z,19.33
2022-11-25T03:50:13.566Z,8.25
2022-11-25T03:52:40.638Z,17.50
2022-11-25T03:55:08.699Z,15.50
2022-11-25T03:57:35.949Z,20.33
2022-11-25T04:00:03.330Z,2.25
2022-11-25T04:02:30.444Z,13.50
2022-11-25T04:04:57.395Z,10.50
2022-11-25T04:07:24.566Z,39.00
2022-11-25T04:09:51.440Z,25.00
2022-11-25T04:12:37.025Z,18.67
2022-11-25T04:15:04.807Z,22.00
2022-11-25T04:17:31.770Z,19.33
2022-11-25T04:19:58.708Z,17.50
2022-11-25T04:22:25.665Z,13.33
2022-11-25T04:24:52.577Z,10.50
2022-11-25T04:27:20.595Z,15.00
2022-11-25T04:29:48.053Z,9.00
2022-11-25T04:32:14.987Z,13.75
2022-11-25T04:34:41.924Z,13.25
2022-11-25T04:37:09.073Z,13.00
2022-11-25T04:39:36.002Z,10.50
2022-11-25T04:42:21.609Z,13.00
2022-11-25T04:45:07.264Z,17.33
2022-11-25T04:47:36.005Z,13.75
2022-11-25T04:50:04.479Z,5.50
2022-11-25T04:52:31.573Z,7.00
2022-11-25T04:54:58.521Z,10.25
2022-11-25T04:57:25.519Z,6.00
2022-11-25T04:59:52.575Z,10.75
2022-11-25T05:02:22.663Z,12.00
2022-11-25T05:04:51.147Z,14.50
2022-11-25T05:07:20.150Z,14.00
2022-11-25T05:09:47.913Z,18.00
2022-11-25T05:12:18.193Z,15.00
2022-11-25T05:14:45.588Z,12.25
2022-11-25T05:17:18.840Z,8.50
2022-11-25T05:19:46.380Z,15.00
2022-11-25T05:22:14.918Z,8.25
2022-11-25T05:24:41.880Z,16.25
2022-11-25T05:27:09.702Z,7.25
2022-11-25T05:29:38.170Z,18.25
2022-11-25T05:32:06.867Z,23.00
2022-11-25T05:34:34.108Z,21.00
2022-11-25T05:37:01.315Z,23.67
2022-11-25T05:39:28.590Z,11.75
2022-11-25T05:41:55.475Z,8.50
2022-11-25T05:44:23.260Z,11.00
2022-11-25T05:46:50.756Z,8.00
2022-11-25T05:49:18.984Z,9.00
2022-11-25T05:51:46.389Z,16.67
2022-11-25T05:54:14.362Z,14.75
2022-11-25T05:56:41.613Z,28.00
2022-11-25T05:59:08.497Z,26.67
2022-11-25T06:01:35.412Z,30.33
2022-11-25T06:04:04.125Z,30.33
2022-11-25T06:06:31.380Z,32.00
2022-11-25T06:08:58.332Z,22.00
2022-11-25T06:11:25.936Z,25.33
2022-11-25T06:13:53.353Z,28.67
2022-11-25T06:16:22.981Z,14.75
2022-11-25T06:18:50.607Z,13.25
2022-11-25T06:21:18.274Z,22.00
2022-11-25T06:23:46.370Z,40.00
2022-11-25T06:26:14.792Z,42.00
2022-11-25T06:28:41.827Z,43.67
2022-11-25T06:31:12.547Z,33.00
2022-11-25T06:33:39.764Z,36.67
2022-11-25T06:36:09.170Z,15.50
2022-11-25T06:38:36.561Z,15.25
2022-11-25T06:41:05.035Z,28.00
2022-11-25T06:43:32.968Z,23.67
2022-11-25T06:46:04.927Z,22.00
2022-11-25T06:48:32.402Z,24.67
2022-11-25T06:51:01.720Z,22.75
2022-11-25T06:53:28.990Z,21.00
2022-11-25T06:56:06.481Z,19.00
2022-11-25T06:58:36.368Z,13.00
2022-11-25T07:01:12.008Z,20.00
2022-11-25T07:03:39.438Z,16.75
2022-11-25T07:06:06.876Z,13.00
2022-11-25T07:08:34.561Z,16.25
2022-11-25T07:11:07.319Z,14.25
2022-11-25T07:13:34.714Z,16.75
2022-11-25T07:16:06.394Z,7.00
2022-11-25T07:18:36.031Z,10.50
2022-11-25T07:21:05.665Z,13.25
2022-11-25T07:23:32.706Z,7.00
2022-11-25T07:26:08.390Z,14.50
2022-11-25T07:28:36.525Z,20.25
2022-11-25T07:31:32.682Z,6.50
2022-11-25T07:34:11.387Z,21.50
2022-11-25T07:36:39.348Z,15.00
2022-11-25T07:39:09.648Z,36.33
2022-11-25T07:41:36.866Z,54.33
2022-11-25T07:44:06.489Z,32.33
2022-11-25T07:46:36.386Z,41.00
2022-11-25T07:49:07.430Z,34.00
2022-11-25T07:51:37.188Z,24.25
2022-11-25T07:54:07.205Z,20.25
2022-11-25T07:56:36.346Z,30.67
2022-11-25T07:59:03.500Z,20.75
2022-11-25T08:01:30.476Z,31.00
2022-11-25T08:03:58.521Z,66.50
2022-11-25T08:06:44.908Z,56.67
2022-11-25T08:09:14.402Z,42.00
2022-11-25T08:11:42.799Z,46.33
2022-11-25T08:14:10.547Z,36.33
2022-11-25T08:16:38.905Z,27.67
2022-11-25T08:19:08.643Z,28.67
2022-11-25T08:21:35.596Z,36.67
2022-11-25T08:24:03.383Z,27.67
2022-11-25T08:26:35.167Z,24.25
2022-11-25T08:29:03.284Z,29.00
2022-11-25T08:31:33.313Z,27.75
2022-11-25T08:34:00.471Z,19.50
2022-11-25T08:36:29.894Z,37.00
2022-11-25T08:38:59.582Z,28.00
2022-11-25T08:41:35.960Z,45.67
2022-11-25T08:44:05.568Z,52.67
2022-11-25T08:46:36.581Z,55.00
2022-11-25T08:49:09.392Z,50.00
2022-11-25T08:51:37.978Z,45.00
2022-11-25T08:54:07.987Z,59.67
2022-11-25T08:56:35.407Z,52.33
2022-11-25T08:59:02.535Z,34.50
2022-11-25T09:01:29.801Z,27.50
2022-11-25T09:03:57.393Z,44.67
2022-11-25T09:06:26.818Z,40.33
2022-11-25T09:09:02.057Z,54.00
2022-11-25T09:11:29.179Z,37.67
2022-11-25T09:13:56.362Z,44.33
2022-11-25T09:16:24.479Z,54.33
2022-11-25T09:18:56.019Z,48.67
2022-11-25T09:21:25.354Z,0.00
2022-11-25T09:23:54.265Z,46.00
2022-11-25T09:26:35.944Z,30.00
2022-11-25T09:29:03.532Z,33.75
2022-11-25T09:31:30.541Z,45.75
2022-11-25T09:33:57.607Z,38.75
2022-11-25T09:36:25.173Z,44.00
2022-11-25T09:38:52.251Z,47.00
2022-11-25T09:41:58.901Z,39.75
2022-11-25T09:45:00.593Z,46.33
2022-11-25T09:47:43.586Z,41.00
2022-11-25T09:50:36.811Z,36.00
2022-11-25T09:53:27.033Z,23.00
2022-11-25T09:56:01.822Z,26.00
2022-11-25T09:58:45.113Z,28.50
2022-11-25T10:01:20.984Z,24.00
2022-11-25T10:04:13.845Z,22.25
2022-11-25T10:06:54.939Z,17.00
2022-11-25T10:09:26.259Z,26.00
2022-11-25T10:11:58.404Z,8.00
2022-11-25T10:14:48.616Z,21.00
2022-11-25T10:17:38.729Z,11.00
2022-11-25T10:20:23.796Z,13.75
2022-11-25T10:23:27.653Z,24.00
2022-11-25T10:26:02.397Z,16.75
2022-11-25T10:28:35.329Z,14.50
2022-11-25T10:31:07.607Z,20.00
2022-11-25T10:33:40.554Z,33.75
2022-11-25T10:36:10.666Z,23.75
2022-11-25T10:38:45.719Z,18.50
2022-11-25T10:41:17.917Z,17.25
2022-11-25T10:43:48.264Z,26.00
2022-11-25T10:47:12.350Z,15.00
2022-11-25T10:49:42.596Z,14.25
2022-11-25T10:52:12.413Z,14.75
2022-11-25T10:54:40.061Z,13.25
2022-11-25T10:57:21.272Z,12.75
2022-11-25T10:59:59.250Z,20.25
2022-11-25T11:02:37.464Z,13.25
2022-11-25T11:05:29.964Z,12.00
2022-11-25T11:08:23.249Z,13.50
2022-11-25T11:11:10.148Z,10.50
2022-11-25T11:13:37.173Z,12.75
2022-11-25T11:16:04.276Z,11.50
2022-11-25T11:18:37.028Z,11.75
2022-11-25T11:21:07.524Z,12.00
2022-11-25T11:23:52.279Z,10.75
2022-11-25T11:26:26.865Z,11.00
2022-11-25T11:29:21.475Z,13.75
2022-11-25T11:32:19.501Z,14.00
2022-11-25T11:35:05.834Z,14.25
2022-11-25T11:37:59.652Z,14.75
2022-11-25T11:40:37.661Z,15.75
2022-11-25T11:43:36.905Z,8.00
2022-11-25T11:46:25.537Z,9.00
2022-11-25T11:49:02.877Z,23.00
2022-11-25T11:51:35.637Z,13.00
2022-11-25T11:54:12.478Z,12.50
2022-11-25T11:57:24.123Z,11.50
2022-11-25T11:59:55.925Z,8.25
2022-11-25T12:02:28.731Z,16.50
2022-11-25T12:05:02.673Z,20.75
2022-11-25T12:07:44.688Z,16.25
2022-11-25T12:10:14.680Z,15.50
2022-11-25T12:13:19.768Z,10.00
2022-11-25T12:15:58.336Z,14.75
2022-11-25T12:18:49.818Z,9.50
2022-11-25T12:21:44.615Z,8.00
2022-11-25T12:24:42.389Z,3.25
2022-11-25T12:27:18.043Z,8.00
2022-11-25T12:29:54.544Z,6.00
2022-11-25T12:32:56.719Z,12.50
2022-11-25T12:35:45.135Z,12.00
2022-11-25T12:38:34.339Z,7.25
2022-11-25T12:41:22.146Z,8.00
2022-11-25T12:43:54.777Z,9.25
2022-11-25T12:46:47.795Z,11.75
2022-11-25T12:49:25.282Z,7.25
2022-11-25T12:52:21.146Z,12.50
2022-11-25T12:55:10.765Z,9.00
2022-11-25T12:58:13.084Z,10.75
2022-11-25T13:01:02.211Z,6.00
2022-11-25T13:03:50.777Z,6.50
2022-11-25T13:06:51.581Z,7.25
2022-11-25T13:09:30.615Z,7.00
2022-11-25T13:12:28.277Z,3.00
2022-11-25T13:15:21.131Z,2.75
2022-11-25T13:17:50.825Z,6.25
2022-11-25T13:20:29.961Z,8.00
2022-11-25T13:23:05.980Z,5.25
2022-11-25T13:25:33.959Z,12.00
2022-11-25T13:28:03.295Z,7.75
2022-11-25T13:30:33.012Z,8.75
2022-11-25T13:33:11.972Z,12.75
2022-11-25T13:35:44.721Z,14.50
2022-11-25T13:38:29.833Z,4.75
2022-11-25T13:41:04.632Z,7.50
2022-11-25T13:43:32.297Z,11.25
2022-11-25T13:45:59.453Z,13.00
2022-11-25T13:48:32.602Z,8.50
2022-11-25T13:51:23.107Z,4.50
2022-11-25T13:54:06.773Z,8.75
2022-11-25T13:56:36.951Z,7.50
2022-11-25T13:59:14.046Z,7.25
2022-11-25T14:01:48.178Z,8.00
2022-11-25T14:04:16.533Z,8.25
2022-11-25T14:06:55.237Z,6.00
2022-11-25T14:09:31.130Z,3.00
2022-11-25T14:12:25.640Z,8.00
2022-11-25T14:15:09.299Z,13.25
2022-11-25T14:17:54.795Z,14.00
2022-11-25T14:20:37.084Z,10.75
2022-11-25T14:23:09.804Z,10.25
2022-11-25T14:25:51.505Z,23.75
2022-11-25T14:28:56.523Z,26.00
2022-11-25T14:31:33.436Z,15.25
2022-11-25T14:34:43.410Z,21.25
2022-11-25T14:37:34.596Z,13.50
2022-11-25T14:40:13.521Z,18.00
2022-11-25T14:42:45.553Z,55.33
2022-11-25T14:45:26.624Z,54.33
2022-11-25T14:47:53.681Z,45.33
2022-11-25T14:50:34.807Z,40.00
2022-11-25T14:53:09.657Z,30.50
2022-11-25T14:55:37.423Z,21.25
2022-11-25T14:58:04.451Z,14.75
2022-11-25T15:00:31.422Z,23.00
2022-11-25T15:03:02.215Z,19.25
2022-11-25T15:05:35.230Z,18.50
2022-11-25T15:08:08.344Z,17.25
2022-11-25T15:10:38.690Z,16.00
2022-11-25T15:13:13.646Z,60.67
2022-11-25T15:15:41.014Z,59.33
2022-11-25T15:18:13.568Z,56.00
2022-11-25T15:20:40.485Z,41.75
2022-11-25T15:23:14.530Z,33.25
2022-11-25T15:25:54.757Z,32.50
2022-11-25T15:28:21.664Z,18.75
2022-11-25T15:31:00.120Z,42.00
2022-11-25T15:33:29.214Z,37.00
2022-11-25T15:35:56.412Z,29.25
2022-11-25T15:38:43.601Z,27.25
2022-11-25T15:41:36.402Z,14.25
2022-11-25T15:44:06.520Z,17.25
2022-11-25T15:46:36.249Z,18.00
2022-11-25T15:49:06.961Z,14.00
2022-11-25T15:51:44.969Z,11.75
2022-11-25T15:54:14.872Z,8.75
2022-11-25T15:56:47.745Z,17.75
2022-11-25T15:59:41.384Z,14.50
2022-11-25T16:02:29.885Z,16.25
2022-11-25T16:05:15.303Z,13.00
2022-11-25T16:07:51.688Z,22.50
2022-11-25T16:10:20.129Z,40.00
2022-11-25T16:13:29.528Z,26.25
2022-11-25T16:16:08.545Z,45.00
2022-11-25T16:18:59.598Z,55.67
2022-11-25T16:21:48.579Z,48.67
2022-11-25T16:24:33.011Z,52.67
2022-11-25T16:27:21.827Z,49.33
2022-11-25T16:29:56.285Z,43.00
2022-11-25T16:32:30.523Z,47.00
2022-11-25T16:35:11.764Z,48.00
2022-11-25T16:37:38.673Z,54.00
2022-11-25T16:40:06.410Z,43.00
2022-11-25T16:42:34.009Z,31.00
2022-11-25T16:45:01.726Z,22.25
2022-11-25T16:47:28.622Z,27.75
2022-11-25T16:49:55.569Z,28.75
2022-11-25T16:52:22.968Z,38.67
2022-11-25T16:54:49.999Z,23.50
2022-11-25T16:57:20.890Z,21.50
2022-11-25T16:59:54.343Z,22.50
2022-11-25T17:02:24.614Z,19.75
2022-11-25T17:04:51.810Z,21.00
2022-11-25T17:07:35.039Z,21.75
2022-11-25T17:10:02.223Z,22.75
2022-11-25T17:12:33.568Z,18.25
2022-11-25T17:15:02.447Z,18.50
2022-11-25T17:17:29.629Z,20.25
2022-11-25T17:19:56.754Z,18.75
2022-11-25T17:22:25.600Z,14.00
2022-11-25T17:24:53.136Z,6.00
2022-11-25T17:27:29.120Z,18.25
2022-11-25T17:29:59.332Z,11.00
2022-11-25T17:32:26.977Z,22.75
2022-11-25T17:34:54.431Z,20.25
2022-11-25T17:37:24.343Z,20.50
2022-11-25T17:39:55.288Z,25.75
2022-11-25T17:42:32.384Z,24.50
2022-11-25T17:45:00.714Z,22.75
2022-11-25T17:47:27.733Z,22.00
2022-11-25T17:49:54.720Z,18.00
2022-11-25T17:52:21.731Z,12.00
2022-11-25T17:54:48.691Z,17.50
2022-11-25T17:57:21.304Z,35.25
2022-11-25T17:59:48.699Z,21.50
2022-11-25T18:02:20.906Z,24.75
2022-11-25T18:04:48.485Z,11.75
2022-11-25T18:07:15.550Z,14.75
2022-11-25T18:09:42.749Z,22.25
2022-11-25T18:12:16.846Z,27.75
2022-11-25T18:14:45.017Z,36.75
2022-11-25T18:17:17.007Z,50.33
2022-11-25T18:19:48.566Z,52.00
2022-11-25T18:22:19.830Z,54.67
2022-11-25T18:24:46.833Z,56.33
2022-11-25T18:27:27.360Z,48.00
2022-11-25T18:29:55.630Z,45.33
2022-11-25T18:32:23.870Z,39.75
2022-11-25T18:34:51.737Z,28.50
2022-11-25T18:37:18.751Z,26.75
2022-11-25T18:39:45.790Z,27.50
2022-11-25T18:42:27.216Z,36.75
2022-11-25T18:44:56.236Z,35.00
2022-11-25T18:47:23.425Z,20.50
2022-11-25T18:49:55.392Z,18.50
2022-11-25T18:52:23.416Z,43.00
2022-11-25T18:54:50.381Z,46.67
2022-11-25T18:57:17.378Z,38.25
2022-11-25T18:59:45.515Z,28.75
2022-11-25T19:02:18.640Z,24.25
2022-11-25T19:04:45.606Z,20.75
2022-11-25T19:07:12.532Z,21.75
2022-11-25T19:09:39.567Z,13.25
2022-11-25T19:12:07.584Z,35.25
2022-11-25T19:14:38.013Z,30.50
2022-11-25T19:17:19.405Z,39.25
2022-11-25T19:19:46.871Z,42.75
2022-11-25T19:22:15.959Z,37.33
2022-11-25T19:24:42.952Z,49.00
2022-11-25T19:27:28.927Z,53.00
2022-11-25T19:29:55.917Z,46.00
2022-11-25T19:32:33.293Z,48.33
2022-11-25T19:35:06.853Z,40.67
2022-11-25T19:37:33.891Z,32.75
2022-11-25T19:40:00.885Z,26.00
2022-11-25T19:42:31.840Z,30.25
2022-11-25T19:44:58.823Z,36.75
2022-11-25T19:47:27.414Z,20.25
2022-11-25T19:49:58.660Z,23.00
2022-11-25T19:52:35.214Z,13.00
2022-11-25T19:55:10.037Z,11.75
2022-11-25T19:57:36.931Z,13.00
2022-11-25T20:00:04.679Z,15.75
2022-11-25T20:02:31.838Z,14.00
2022-11-25T20:04:58.789Z,14.50
2022-11-25T20:07:27.273Z,6.75
2022-11-25T20:09:56.313Z,30.75
2022-11-25T20:12:28.277Z,20.25
2022-11-25T20:14:55.178Z,17.75
2022-11-25T20:17:28.856Z,14.75
2022-11-25T20:19:59.922Z,38.25
2022-11-25T20:22:31.562Z,25.75
2022-11-25T20:25:00.686Z,21.00
2022-11-25T20:27:28.741Z,17.25
2022-11-25T20:29:55.668Z,16.00
2022-11-25T20:32:28.548Z,12.25
2022-11-25T20:34:59.314Z,12.00
2022-11-25T20:37:29.541Z,15.00
2022-11-25T20:39:59.132Z,14.50
2022-11-25T20:42:26.801Z,14.50
2022-11-25T20:44:57.541Z,17.50
2022-11-25T20:47:26.487Z,21.25
2022-11-25T20:49:54.077Z,22.50
2022-11-25T20:52:24.907Z,25.75
2022-11-25T20:54:51.823Z,28.00
2022-11-25T20:57:18.699Z,24.25
2022-11-25T20:59:45.629Z,19.50
2022-11-25T21:02:12.834Z,22.50
2022-11-25T21:04:39.922Z,16.25
2022-11-25T21:07:15.668Z,38.67
2022-11-25T21:09:43.027Z,30.00
2022-11-25T21:12:19.319Z,30.75
2022-11-25T21:14:47.217Z,22.25
2022-11-25T21:17:14.081Z,18.00
2022-11-25T21:19:40.995Z,19.00
2022-11-25T21:22:15.044Z,17.25
2022-11-25T21:24:42.636Z,36.00
2022-11-25T21:27:15.636Z,20.50
2022-11-25T21:29:44.266Z,16.75
2022-11-25T21:32:25.382Z,13.25
2022-11-25T21:34:52.397Z,21.25
2022-11-25T21:37:28.946Z,16.00
2022-11-25T21:39:58.016Z,22.00
2022-11-25T21:42:25.661Z,23.50
2022-11-25T21:44:53.660Z,21.25
2022-11-25T21:47:26.044Z,18.00
2022-11-25T21:49:53.357Z,26.00
2022-11-25T21:52:20.262Z,23.50
2022-11-25T21:54:47.523Z,24.00
2022-11-25T21:57:18.538Z,12.25
2022-11-25T21:59:46.510Z,51.33
2022-11-25T22:02:21.707Z,44.33
2022-11-25T22:04:49.220Z,49.67
2022-11-25T22:07:16.542Z,59.67
2022-11-25T22:09:44.194Z,55.33
2022-11-25T22:12:41.566Z,58.00
2022-11-25T22:15:21.203Z,56.00
2022-11-25T22:17:50.021Z,34.67
2022-11-25T22:20:28.109Z,33.25
2022-11-25T22:22:55.927Z,11.25
2022-11-25T22:25:27.067Z,27.00
2022-11-25T22:27:54.282Z,23.25
2022-11-25T22:30:23.181Z,27.00
2022-11-25T22:33:00.601Z,22.00
2022-11-25T22:35:28.321Z,15.25
2022-11-25T22:37:55.704Z,15.25
2022-11-25T22:40:23.859Z,8.00
2022-11-25T22:42:55.207Z,19.00
2022-11-25T22:45:34.586Z,18.25
2022-11-25T22:48:05.719Z,17.75
2022-11-25T22:50:34.825Z,30.25
2022-11-25T22:53:02.112Z,31.25
2022-11-25T22:55:32.093Z,16.25
2022-11-25T22:58:01.074Z,27.00
2022-11-25T23:00:32.206Z,18.00
2022-11-25T23:03:01.051Z,16.50
2022-11-25T23:05:33.958Z,13.25
2022-11-25T23:08:02.828Z,12.75
2022-11-25T23:10:32.421Z,16.50
2022-11-25T23:12:59.451Z,12.50
2022-11-25T23:15:26.802Z,13.75
2022-11-25T23:17:59.238Z,12.50
2022-11-25T23:20:36.871Z,11.75
2022-11-25T23:23:15.287Z,15.50
2022-11-25T23:25:42.809Z,13.25
2022-11-25T23:28:09.829Z,13.25
2022-11-25T23:30:37.735Z,14.25
2022-11-25T23:33:10.885Z,13.75
2022-11-25T23:35:39.475Z,12.50
2022-11-25T23:38:11.853Z,11.50
2022-11-25T23:40:39.288Z,10.75
2022-11-25T23:43:15.084Z,13.50
2022-11-25T23:45:56.775Z,14.50
2022-11-25T23:48:29.139Z,16.00
2022-11-25T23:50:58.594Z,15.25
2022-11-25T23:53:33.816Z,12.75
2022-11-25T23:56:00.766Z,19.25
2022-11-25T23:58:27.833Z,22.75
